sensor_id;sensor_type;location;lat;lon;timestamp;temperature;humidity
13817;DHT22;6979;52.116;5.286;2024-02-21T00:00:46;13.90;99.90
13817;DHT22;6979;52.116;5.286;2024-02-21T00:03:13;13.90;99.90
13817;DHT22;6979;52.116;5.286;2024-02-21T00:05:40;13.90;99.90
13817;DHT22;6979;52.116;5.286;2024-02-21T00:08:07;13.90;99.90
13817;DHT22;6979;52.116;5.286;2024-02-21T00:10:35;13.90;99.90
13817;DHT22;6979;52.116;5.286;2024-02-21T00:13:02;13.90;99.90
13817;DHT22;6979;52.116;5.286;2024-02-21T00:15:29;13.90;99.90
13817;DHT22;6979;52.116;5.286;2024-02-21T00:17:56;13.90;99.90
13817;DHT22;6979;52.116;5.286;2024-02-21T00:20:22;13.80;99.90
13817;DHT22;6979;52.116;5.286;2024-02-21T00:22:51;13.80;99.90
13817;DHT22;6979;52.116;5.286;2024-02-21T00:25:18;13.80;99.90
13817;DHT22;6979;52.116;5.286;2024-02-21T00:27:45;13.80;99.90
13817;DHT22;6979;52.116;5.286;2024-02-21T00:30:12;13.80;99.90
13817;DHT22;6979;52.116;5.286;2024-02-21T00:32:39;13.80;99.90
13817;DHT22;6979;52.116;5.286;2024-02-21T00:35:06;13.80;99.90
13817;DHT22;6979;52.116;5.286;2024-02-21T00:37:33;13.80;99.90
13817;DHT22;6979;52.116;5.286;2024-02-21T00:40:00;13.80;99.90
13817;DHT22;6979;52.116;5.286;2024-02-21T00:42:27;13.80;99.90
13817;DHT22;6979;52.116;5.286;2024-02-21T00:44:55;13.80;99.90
13817;DHT22;6979;52.116;5.286;2024-02-21T00:47:22;13.80;99.90
13817;DHT22;6979;52.116;5.286;2024-02-21T00:49:49;13.80;99.90
13817;DHT22;6979;52.116;5.286;2024-02-21T00:52:15;13.80;99.90
13817;DHT22;6979;52.116;5.286;2024-02-21T00:54:42;13.80;99.90
13817;DHT22;6979;52.116;5.286;2024-02-21T00:57:09;13.80;99.90
13817;DHT22;6979;52.116;5.286;2024-02-21T00:59:36;13.80;99.90
13817;DHT22;6979;52.116;5.286;2024-02-21T01:02:07;13.80;99.90
13817;DHT22;6979;52.116;5.286;2024-02-21T01:04:34;13.80;99.90
13817;DHT22;6979;52.116;5.286;2024-02-21T01:07:02;13.80;99.90
13817;DHT22;6979;52.116;5.286;2024-02-21T01:09:29;13.80;99.90
13817;DHT22;6979;52.116;5.286;2024-02-21T01:11:55;13.80;99.90
13817;DHT22;6979;52.116;5.286;2024-02-21T01:14:22;13.80;99.90
13817;DHT22;6979;52.116;5.286;2024-02-21T01:16:49;13.80;99.90
13817;DHT22;6979;52.116;5.286;2024-02-21T01:19:17;13.80;99.90
13817;DHT22;6979;52.116;5.286;2024-02-21T01:21:44;13.80;99.90
13817;DHT22;6979;52.116;5.286;2024-02-21T01:24:11;13.90;99.90
13817;DHT22;6979;52.116;5.286;2024-02-21T01:26:38;13.80;99.90
13817;DHT22;6979;52.116;5.286;2024-02-21T01:29:04;13.80;99.90
13817;DHT22;6979;52.116;5.286;2024-02-21T01:31:31;13.80;99.90
13817;DHT22;6979;52.116;5.286;2024-02-21T01:33:58;13.80;99.90
13817;DHT22;6979;52.116;5.286;2024-02-21T01:36:26;13.80;99.90
13817;DHT22;6979;52.116;5.286;2024-02-21T01:38:53;13.80;99.90
13817;DHT22;6979;52.116;5.286;2024-02-21T01:41:20;13.80;99.90
13817;DHT22;6979;52.116;5.286;2024-02-21T01:43:49;13.80;99.90
13817;DHT22;6979;52.116;5.286;2024-02-21T01:46:16;13.80;99.90
13817;DHT22;6979;52.116;5.286;2024-02-21T01:48:43;13.80;99.90
13817;DHT22;6979;52.116;5.286;2024-02-21T01:51:11;13.80;99.90
13817;DHT22;6979;52.116;5.286;2024-02-21T01:53:43;13.80;99.90
13817;DHT22;6979;52.116;5.286;2024-02-21T01:56:10;13.80;99.90
13817;DHT22;6979;52.116;5.286;2024-02-21T01:58:39;13.80;99.90
13817;DHT22;6979;52.116;5.286;2024-02-21T02:01:07;13.80;99.90
13817;DHT22;6979;52.116;5.286;2024-02-21T02:03:34;13.80;99.90
13817;DHT22;6979;52.116;5.286;2024-02-21T02:06:01;13.80;99.90
13817;DHT22;6979;52.116;5.286;2024-02-21T02:08:28;13.70;99.90
13817;DHT22;6979;52.116;5.286;2024-02-21T02:10:56;13.70;99.90
13817;DHT22;6979;52.116;5.286;2024-02-21T02:13:23;13.80;99.90
13817;DHT22;6979;52.116;5.286;2024-02-21T02:15:50;13.70;99.90
13817;DHT22;6979;52.116;5.286;2024-02-21T02:18:19;13.70;99.90
13817;DHT22;6979;52.116;5.286;2024-02-21T02:20:46;13.70;99.90
13817;DHT22;6979;52.116;5.286;2024-02-21T02:23:18;13.70;99.90
13817;DHT22;6979;52.116;5.286;2024-02-21T02:25:46;13.70;99.90
13817;DHT22;6979;52.116;5.286;2024-02-21T02:28:15;13.70;99.90
13817;DHT22;6979;52.116;5.286;2024-02-21T02:30:41;13.70;99.90
13817;DHT22;6979;52.116;5.286;2024-02-21T02:33:08;13.70;99.90
13817;DHT22;6979;52.116;5.286;2024-02-21T02:35:37;13.70;99.90
13817;DHT22;6979;52.116;5.286;2024-02-21T02:38:04;13.70;99.90
13817;DHT22;6979;52.116;5.286;2024-02-21T02:40:33;13.70;99.90
13817;DHT22;6979;52.116;5.286;2024-02-21T02:43:00;13.80;99.90
13817;DHT22;6979;52.116;5.286;2024-02-21T02:45:27;13.70;99.90
13817;DHT22;6979;52.116;5.286;2024-02-21T02:47:54;13.80;99.90
13817;DHT22;6979;52.116;5.286;2024-02-21T02:50:22;13.80;99.90
13817;DHT22;6979;52.116;5.286;2024-02-21T02:52:49;13.70;99.90
13817;DHT22;6979;52.116;5.286;2024-02-21T02:55:16;13.70;99.90
13817;DHT22;6979;52.116;5.286;2024-02-21T02:57:44;13.80;99.90
13817;DHT22;6979;52.116;5.286;2024-02-21T03:00:13;13.70;99.90
13817;DHT22;6979;52.116;5.286;2024-02-21T03:02:45;13.70;99.90
13817;DHT22;6979;52.116;5.286;2024-02-21T03:05:13;13.70;99.90
13817;DHT22;6979;52.116;5.286;2024-02-21T03:07:41;13.70;99.90
13817;DHT22;6979;52.116;5.286;2024-02-21T03:10:09;13.70;99.90
13817;DHT22;6979;52.116;5.286;2024-02-21T03:12:36;13.70;99.90
13817;DHT22;6979;52.116;5.286;2024-02-21T03:15:06;13.70;99.90
13817;DHT22;6979;52.116;5.286;2024-02-21T03:17:33;13.70;99.90
13817;DHT22;6979;52.116;5.286;2024-02-21T03:20:01;13.70;99.90
13817;DHT22;6979;52.116;5.286;2024-02-21T03:22:30;13.70;99.90
13817;DHT22;6979;52.116;5.286;2024-02-21T03:24:57;13.80;99.90
13817;DHT22;6979;52.116;5.286;2024-02-21T03:27:24;13.70;99.90
13817;DHT22;6979;52.116;5.286;2024-02-21T03:29:51;13.70;99.90
13817;DHT22;6979;52.116;5.286;2024-02-21T03:32:19;13.70;99.90
13817;DHT22;6979;52.116;5.286;2024-02-21T03:34:46;13.70;99.90
13817;DHT22;6979;52.116;5.286;2024-02-21T03:37:13;13.70;99.90
13817;DHT22;6979;52.116;5.286;2024-02-21T03:39:40;13.70;99.90
13817;DHT22;6979;52.116;5.286;2024-02-21T03:42:07;13.70;99.90
13817;DHT22;6979;52.116;5.286;2024-02-21T03:44:34;13.70;99.90
13817;DHT22;6979;52.116;5.286;2024-02-21T03:47:03;13.70;99.90
13817;DHT22;6979;52.116;5.286;2024-02-21T03:49:32;13.70;99.90
13817;DHT22;6979;52.116;5.286;2024-02-21T03:51:58;13.70;99.90
13817;DHT22;6979;52.116;5.286;2024-02-21T03:54:25;13.70;99.90
13817;DHT22;6979;52.116;5.286;2024-02-21T03:56:52;13.60;99.90
13817;DHT22;6979;52.116;5.286;2024-02-21T03:59:22;13.60;99.90
13817;DHT22;6979;52.116;5.286;2024-02-21T04:01:51;13.60;99.90
13817;DHT22;6979;52.116;5.286;2024-02-21T04:04:19;13.60;99.90
13817;DHT22;6979;52.116;5.286;2024-02-21T04:06:48;13.60;99.90
13817;DHT22;6979;52.116;5.286;2024-02-21T04:09:14;13.60;99.90
13817;DHT22;6979;52.116;5.286;2024-02-21T04:11:41;13.60;99.90
13817;DHT22;6979;52.116;5.286;2024-02-21T04:14:08;13.60;99.90
13817;DHT22;6979;52.116;5.286;2024-02-21T04:16:37;13.60;99.90
13817;DHT22;6979;52.116;5.286;2024-02-21T04:19:07;13.60;99.90
13817;DHT22;6979;52.116;5.286;2024-02-21T04:21:36;13.60;99.90
13817;DHT22;6979;52.116;5.286;2024-02-21T04:24:05;13.60;99.90
13817;DHT22;6979;52.116;5.286;2024-02-21T04:26:32;13.60;99.90
13817;DHT22;6979;52.116;5.286;2024-02-21T04:28:59;13.60;99.90
13817;DHT22;6979;52.116;5.286;2024-02-21T04:31:26;13.60;99.90
13817;DHT22;6979;52.116;5.286;2024-02-21T04:33:52;13.50;99.90
13817;DHT22;6979;52.116;5.286;2024-02-21T04:36:19;13.50;99.90
13817;DHT22;6979;52.116;5.286;2024-02-21T04:38:46;13.50;99.90
13817;DHT22;6979;52.116;5.286;2024-02-21T04:41:14;13.50;99.90
13817;DHT22;6979;52.116;5.286;2024-02-21T04:43:41;13.50;99.90
13817;DHT22;6979;52.116;5.286;2024-02-21T04:46:09;13.50;99.90
13817;DHT22;6979;52.116;5.286;2024-02-21T04:48:36;13.40;99.90
13817;DHT22;6979;52.116;5.286;2024-02-21T04:51:04;13.40;99.90
13817;DHT22;6979;52.116;5.286;2024-02-21T04:53:31;13.40;99.90
13817;DHT22;6979;52.116;5.286;2024-02-21T04:55:57;13.40;99.90
13817;DHT22;6979;52.116;5.286;2024-02-21T04:58:25;13.50;99.90
13817;DHT22;6979;52.116;5.286;2024-02-21T05:00:53;13.40;99.90
13817;DHT22;6979;52.116;5.286;2024-02-21T05:03:21;13.40;99.90
13817;DHT22;6979;52.116;5.286;2024-02-21T05:05:48;13.40;99.90
13817;DHT22;6979;52.116;5.286;2024-02-21T05:08:15;13.40;99.90
13817;DHT22;6979;52.116;5.286;2024-02-21T05:10:42;13.40;99.90
13817;DHT22;6979;52.116;5.286;2024-02-21T05:13:10;13.40;99.90
13817;DHT22;6979;52.116;5.286;2024-02-21T05:15:39;13.40;99.90
13817;DHT22;6979;52.116;5.286;2024-02-21T05:18:06;13.40;99.90
13817;DHT22;6979;52.116;5.286;2024-02-21T05:20:33;13.50;99.90
13817;DHT22;6979;52.116;5.286;2024-02-21T05:23:00;13.40;99.90
13817;DHT22;6979;52.116;5.286;2024-02-21T05:25:27;13.50;99.90
13817;DHT22;6979;52.116;5.286;2024-02-21T05:27:54;13.50;99.90
13817;DHT22;6979;52.116;5.286;2024-02-21T05:30:21;13.40;99.90
13817;DHT22;6979;52.116;5.286;2024-02-21T05:32:49;13.40;99.90
13817;DHT22;6979;52.116;5.286;2024-02-21T05:35:16;13.50;99.90
13817;DHT22;6979;52.116;5.286;2024-02-21T05:37:43;13.50;99.90
13817;DHT22;6979;52.116;5.286;2024-02-21T05:40:12;13.50;99.90
13817;DHT22;6979;52.116;5.286;2024-02-21T05:42:40;13.50;99.90
13817;DHT22;6979;52.116;5.286;2024-02-21T05:45:07;13.50;99.90
13817;DHT22;6979;52.116;5.286;2024-02-21T05:47:34;13.50;99.90
13817;DHT22;6979;52.116;5.286;2024-02-21T05:50:02;13.50;99.90
13817;DHT22;6979;52.116;5.286;2024-02-21T05:52:29;13.50;99.90
13817;DHT22;6979;52.116;5.286;2024-02-21T05:54:56;13.50;99.90
13817;DHT22;6979;52.116;5.286;2024-02-21T05:57:23;13.50;99.90
13817;DHT22;6979;52.116;5.286;2024-02-21T05:59:49;13.50;99.90
13817;DHT22;6979;52.116;5.286;2024-02-21T06:02:16;13.50;99.90
13817;DHT22;6979;52.116;5.286;2024-02-21T06:04:45;13.50;99.90
13817;DHT22;6979;52.116;5.286;2024-02-21T06:07:14;13.50;99.90
13817;DHT22;6979;52.116;5.286;2024-02-21T06:09:41;13.50;99.90
13817;DHT22;6979;52.116;5.286;2024-02-21T06:12:08;13.50;99.90
13817;DHT22;6979;52.116;5.286;2024-02-21T06:14:34;13.50;99.90
13817;DHT22;6979;52.116;5.286;2024-02-21T06:17:03;13.50;99.90
13817;DHT22;6979;52.116;5.286;2024-02-21T06:19:29;13.50;99.90
13817;DHT22;6979;52.116;5.286;2024-02-21T06:21:56;13.50;99.90
13817;DHT22;6979;52.116;5.286;2024-02-21T06:24:24;13.50;99.90
13817;DHT22;6979;52.116;5.286;2024-02-21T06:26:51;13.40;99.90
13817;DHT22;6979;52.116;5.286;2024-02-21T06:29:18;13.40;99.90
13817;DHT22;6979;52.116;5.286;2024-02-21T06:31:45;13.40;99.90
13817;DHT22;6979;52.116;5.286;2024-02-21T06:34:12;13.40;99.90
13817;DHT22;6979;52.116;5.286;2024-02-21T06:36:38;13.40;99.90
13817;DHT22;6979;52.116;5.286;2024-02-21T06:39:05;13.40;99.90
13817;DHT22;6979;52.116;5.286;2024-02-21T06:41:34;13.40;99.90
13817;DHT22;6979;52.116;5.286;2024-02-21T06:44:02;13.40;99.90
13817;DHT22;6979;52.116;5.286;2024-02-21T06:46:29;13.40;99.90
13817;DHT22;6979;52.116;5.286;2024-02-21T06:48:58;13.40;99.90
13817;DHT22;6979;52.116;5.286;2024-02-21T06:51:25;13.40;99.90
13817;DHT22;6979;52.116;5.286;2024-02-21T06:53:52;13.30;99.90
13817;DHT22;6979;52.116;5.286;2024-02-21T06:56:19;13.30;99.90
13817;DHT22;6979;52.116;5.286;2024-02-21T06:58:47;13.30;99.90
13817;DHT22;6979;52.116;5.286;2024-02-21T07:01:14;13.30;99.90
13817;DHT22;6979;52.116;5.286;2024-02-21T07:03:41;13.30;99.90
13817;DHT22;6979;52.116;5.286;2024-02-21T07:06:08;13.30;99.90
13817;DHT22;6979;52.116;5.286;2024-02-21T07:08:35;13.30;99.90
13817;DHT22;6979;52.116;5.286;2024-02-21T07:11:01;13.20;99.90
13817;DHT22;6979;52.116;5.286;2024-02-21T07:13:28;13.20;99.90
13817;DHT22;6979;52.116;5.286;2024-02-21T07:15:56;13.30;99.90
13817;DHT22;6979;52.116;5.286;2024-02-21T07:18:23;13.20;99.90
13817;DHT22;6979;52.116;5.286;2024-02-21T07:20:50;13.20;99.90
13817;DHT22;6979;52.116;5.286;2024-02-21T07:23:17;13.20;99.90
13817;DHT22;6979;52.116;5.286;2024-02-21T07:25:44;13.20;99.90
13817;DHT22;6979;52.116;5.286;2024-02-21T07:28:11;13.20;99.90
13817;DHT22;6979;52.116;5.286;2024-02-21T07:30:39;13.20;99.90
13817;DHT22;6979;52.116;5.286;2024-02-21T07:33:07;13.10;99.90
13817;DHT22;6979;52.116;5.286;2024-02-21T07:35:38;13.10;99.90
13817;DHT22;6979;52.116;5.286;2024-02-21T07:38:06;13.10;99.90
13817;DHT22;6979;52.116;5.286;2024-02-21T07:40:35;13.10;99.90
13817;DHT22;6979;52.116;5.286;2024-02-21T07:43:02;13.20;99.90
13817;DHT22;6979;52.116;5.286;2024-02-21T07:45:29;13.20;99.90
13817;DHT22;6979;52.116;5.286;2024-02-21T07:47:55;13.20;99.90
13817;DHT22;6979;52.116;5.286;2024-02-21T07:50:24;13.20;99.90
13817;DHT22;6979;52.116;5.286;2024-02-21T07:52:50;13.20;99.90
13817;DHT22;6979;52.116;5.286;2024-02-21T07:55:18;13.20;99.90
13817;DHT22;6979;52.116;5.286;2024-02-21T07:57:46;13.20;99.90
13817;DHT22;6979;52.116;5.286;2024-02-21T08:00:13;13.20;99.90
13817;DHT22;6979;52.116;5.286;2024-02-21T08:02:45;13.20;99.90
13817;DHT22;6979;52.116;5.286;2024-02-21T08:05:12;13.20;99.90
13817;DHT22;6979;52.116;5.286;2024-02-21T08:07:43;13.20;99.90
13817;DHT22;6979;52.116;5.286;2024-02-21T08:10:10;13.10;99.90
13817;DHT22;6979;52.116;5.286;2024-02-21T08:12:36;13.10;99.90
13817;DHT22;6979;52.116;5.286;2024-02-21T08:15:04;13.10;99.90
13817;DHT22;6979;52.116;5.286;2024-02-21T08:17:33;13.20;99.90
13817;DHT22;6979;52.116;5.286;2024-02-21T08:20:00;13.10;99.90
13817;DHT22;6979;52.116;5.286;2024-02-21T08:22:27;13.10;99.90
13817;DHT22;6979;52.116;5.286;2024-02-21T08:24:56;13.10;99.90
13817;DHT22;6979;52.116;5.286;2024-02-21T08:27:22;13.10;99.90
13817;DHT22;6979;52.116;5.286;2024-02-21T08:29:49;13.10;99.90
13817;DHT22;6979;52.116;5.286;2024-02-21T08:32:16;13.10;99.90
13817;DHT22;6979;52.116;5.286;2024-02-21T08:34:43;13.10;99.90
13817;DHT22;6979;52.116;5.286;2024-02-21T08:37:10;13.10;99.90
13817;DHT22;6979;52.116;5.286;2024-02-21T08:39:37;13.10;99.90
13817;DHT22;6979;52.116;5.286;2024-02-21T08:42:06;13.10;99.90
13817;DHT22;6979;52.116;5.286;2024-02-21T08:44:33;13.10;99.90
13817;DHT22;6979;52.116;5.286;2024-02-21T08:47:00;13.10;99.90
13817;DHT22;6979;52.116;5.286;2024-02-21T08:49:29;13.10;99.90
13817;DHT22;6979;52.116;5.286;2024-02-21T08:51:56;13.20;99.90
13817;DHT22;6979;52.116;5.286;2024-02-21T08:54:23;13.20;99.90
13817;DHT22;6979;52.116;5.286;2024-02-21T08:56:50;13.20;99.90
13817;DHT22;6979;52.116;5.286;2024-02-21T08:59:18;13.20;99.90
13817;DHT22;6979;52.116;5.286;2024-02-21T09:01:46;13.20;99.90
13817;DHT22;6979;52.116;5.286;2024-02-21T09:04:12;13.30;99.90
13817;DHT22;6979;52.116;5.286;2024-02-21T09:06:39;13.30;99.90
13817;DHT22;6979;52.116;5.286;2024-02-21T09:09:08;13.30;99.90
13817;DHT22;6979;52.116;5.286;2024-02-21T09:11:35;13.30;99.90
13817;DHT22;6979;52.116;5.286;2024-02-21T09:14:02;13.40;99.90
13817;DHT22;6979;52.116;5.286;2024-02-21T09:16:32;13.40;99.90
13817;DHT22;6979;52.116;5.286;2024-02-21T09:18:59;13.40;99.90
13817;DHT22;6979;52.116;5.286;2024-02-21T09:21:26;13.40;99.90
13817;DHT22;6979;52.116;5.286;2024-02-21T09:23:53;13.40;99.90
13817;DHT22;6979;52.116;5.286;2024-02-21T09:26:20;13.50;99.90
13817;DHT22;6979;52.116;5.286;2024-02-21T09:28:47;13.50;99.90
13817;DHT22;6979;52.116;5.286;2024-02-21T09:31:14;13.50;99.90
13817;DHT22;6979;52.116;5.286;2024-02-21T09:33:42;13.50;99.90
13817;DHT22;6979;52.116;5.286;2024-02-21T09:36:09;13.50;99.90
13817;DHT22;6979;52.116;5.286;2024-02-21T09:38:36;13.50;99.90
13817;DHT22;6979;52.116;5.286;2024-02-21T09:41:11;13.60;99.90
13817;DHT22;6979;52.116;5.286;2024-02-21T09:43:41;13.60;99.90
13817;DHT22;6979;52.116;5.286;2024-02-21T09:46:14;13.60;99.90
13817;DHT22;6979;52.116;5.286;2024-02-21T09:49:02;13.60;99.90
13817;DHT22;6979;52.116;5.286;2024-02-21T09:51:34;13.60;99.90
13817;DHT22;6979;52.116;5.286;2024-02-21T09:54:02;13.60;99.90
13817;DHT22;6979;52.116;5.286;2024-02-21T09:56:29;13.60;99.90
13817;DHT22;6979;52.116;5.286;2024-02-21T09:58:57;13.60;99.90
13817;DHT22;6979;52.116;5.286;2024-02-21T10:01:24;13.60;99.90
13817;DHT22;6979;52.116;5.286;2024-02-21T10:03:59;13.70;99.90
13817;DHT22;6979;52.116;5.286;2024-02-21T10:06:28;13.70;99.90
13817;DHT22;6979;52.116;5.286;2024-02-21T10:08:55;13.70;99.90
13817;DHT22;6979;52.116;5.286;2024-02-21T10:11:23;13.70;99.90
13817;DHT22;6979;52.116;5.286;2024-02-21T10:13:50;13.70;99.90
13817;DHT22;6979;52.116;5.286;2024-02-21T10:16:16;13.80;99.90
13817;DHT22;6979;52.116;5.286;2024-02-21T10:18:43;13.70;99.90
13817;DHT22;6979;52.116;5.286;2024-02-21T10:21:11;13.80;99.90
13817;DHT22;6979;52.116;5.286;2024-02-21T10:23:45;13.80;99.90
13817;DHT22;6979;52.116;5.286;2024-02-21T10:26:13;13.80;99.90
13817;DHT22;6979;52.116;5.286;2024-02-21T10:28:41;13.90;99.90
13817;DHT22;6979;52.116;5.286;2024-02-21T10:31:10;13.90;99.90
13817;DHT22;6979;52.116;5.286;2024-02-21T10:33:38;13.90;99.90
13817;DHT22;6979;52.116;5.286;2024-02-21T10:36:13;14.00;99.90
13817;DHT22;6979;52.116;5.286;2024-02-21T10:38:42;14.00;99.90
13817;DHT22;6979;52.116;5.286;2024-02-21T10:41:14;14.10;99.90
13817;DHT22;6979;52.116;5.286;2024-02-21T10:43:41;14.10;99.90
13817;DHT22;6979;52.116;5.286;2024-02-21T10:46:08;14.20;99.90
13817;DHT22;6979;52.116;5.286;2024-02-21T10:48:42;14.20;99.90
13817;DHT22;6979;52.116;5.286;2024-02-21T10:51:15;14.20;99.90
13817;DHT22;6979;52.116;5.286;2024-02-21T10:53:53;14.30;99.90
13817;DHT22;6979;52.116;5.286;2024-02-21T10:56:24;14.30;99.90
13817;DHT22;6979;52.116;5.286;2024-02-21T10:58:53;14.40;99.90
13817;DHT22;6979;52.116;5.286;2024-02-21T11:01:21;14.30;99.90
13817;DHT22;6979;52.116;5.286;2024-02-21T11:03:52;14.40;99.90
13817;DHT22;6979;52.116;5.286;2024-02-21T11:06:21;14.30;99.90
13817;DHT22;6979;52.116;5.286;2024-02-21T11:09:00;14.30;99.90
13817;DHT22;6979;52.116;5.286;2024-02-21T11:11:28;14.30;99.90
13817;DHT22;6979;52.116;5.286;2024-02-21T11:14:04;14.30;99.90
13817;DHT22;6979;52.116;5.286;2024-02-21T11:16:36;14.40;99.90
13817;DHT22;6979;52.116;5.286;2024-02-21T11:19:05;14.40;99.90
13817;DHT22;6979;52.116;5.286;2024-02-21T11:21:37;14.30;99.90
13817;DHT22;6979;52.116;5.286;2024-02-21T11:24:05;14.30;99.90
13817;DHT22;6979;52.116;5.286;2024-02-21T11:26:32;14.20;99.90
13817;DHT22;6979;52.116;5.286;2024-02-21T11:29:00;14.20;99.90
13817;DHT22;6979;52.116;5.286;2024-02-21T11:31:38;14.20;99.90
13817;DHT22;6979;52.116;5.286;2024-02-21T11:34:08;14.20;99.90
13817;DHT22;6979;52.116;5.286;2024-02-21T11:36:39;14.10;99.90
13817;DHT22;6979;52.116;5.286;2024-02-21T11:39:12;14.10;99.90
13817;DHT22;6979;52.116;5.286;2024-02-21T11:41:39;14.10;99.90
13817;DHT22;6979;52.116;5.286;2024-02-21T11:44:09;14.10;99.90
13817;DHT22;6979;52.116;5.286;2024-02-21T11:46:36;14.10;99.90
13817;DHT22;6979;52.116;5.286;2024-02-21T11:49:02;14.10;99.90
13817;DHT22;6979;52.116;5.286;2024-02-21T11:51:29;14.00;99.90
13817;DHT22;6979;52.116;5.286;2024-02-21T11:53:57;14.00;99.90
13817;DHT22;6979;52.116;5.286;2024-02-21T11:56:24;14.00;99.90
13817;DHT22;6979;52.116;5.286;2024-02-21T11:58:51;14.00;99.90
13817;DHT22;6979;52.116;5.286;2024-02-21T12:01:18;14.10;99.90
13817;DHT22;6979;52.116;5.286;2024-02-21T12:03:45;14.10;99.90
13817;DHT22;6979;52.116;5.286;2024-02-21T12:06:16;14.10;99.90
13817;DHT22;6979;52.116;5.286;2024-02-21T12:08:47;14.20;99.90
13817;DHT22;6979;52.116;5.286;2024-02-21T12:11:22;14.20;99.90
13817;DHT22;6979;52.116;5.286;2024-02-21T12:13:58;14.30;99.90
13817;DHT22;6979;52.116;5.286;2024-02-21T12:16:27;14.30;99.90
13817;DHT22;6979;52.116;5.286;2024-02-21T12:18:55;14.40;99.90
13817;DHT22;6979;52.116;5.286;2024-02-21T12:21:24;14.40;99.90
13817;DHT22;6979;52.116;5.286;2024-02-21T12:23:50;14.40;99.90
13817;DHT22;6979;52.116;5.286;2024-02-21T12:26:17;14.50;99.90
13817;DHT22;6979;52.116;5.286;2024-02-21T12:28:45;14.50;99.90
13817;DHT22;6979;52.116;5.286;2024-02-21T12:31:12;14.50;99.90
13817;DHT22;6979;52.116;5.286;2024-02-21T12:33:39;14.50;99.90
13817;DHT22;6979;52.116;5.286;2024-02-21T12:36:06;14.50;99.90
13817;DHT22;6979;52.116;5.286;2024-02-21T12:38:36;14.50;99.90
13817;DHT22;6979;52.116;5.286;2024-02-21T12:41:03;14.50;99.90
13817;DHT22;6979;52.116;5.286;2024-02-21T12:43:30;14.50;99.90
13817;DHT22;6979;52.116;5.286;2024-02-21T12:45:58;14.50;99.90
13817;DHT22;6979;52.116;5.286;2024-02-21T12:48:25;14.50;99.90
13817;DHT22;6979;52.116;5.286;2024-02-21T12:50:52;14.60;99.90
13817;DHT22;6979;52.116;5.286;2024-02-21T12:53:19;14.60;99.90
13817;DHT22;6979;52.116;5.286;2024-02-21T12:55:48;14.60;99.90
13817;DHT22;6979;52.116;5.286;2024-02-21T12:58:16;14.60;99.90
13817;DHT22;6979;52.116;5.286;2024-02-21T13:00:43;14.60;99.90
13817;DHT22;6979;52.116;5.286;2024-02-21T13:03:11;14.60;99.90
13817;DHT22;6979;52.116;5.286;2024-02-21T13:05:39;14.60;99.90
13817;DHT22;6979;52.116;5.286;2024-02-21T13:08:06;14.60;99.90
13817;DHT22;6979;52.116;5.286;2024-02-21T13:10:33;14.70;99.90
13817;DHT22;6979;52.116;5.286;2024-02-21T13:13:00;14.70;99.90
13817;DHT22;6979;52.116;5.286;2024-02-21T13:15:27;14.70;99.90
13817;DHT22;6979;52.116;5.286;2024-02-21T13:17:55;14.70;99.90
13817;DHT22;6979;52.116;5.286;2024-02-21T13:20:23;14.70;99.90
13817;DHT22;6979;52.116;5.286;2024-02-21T13:22:50;14.70;99.90
13817;DHT22;6979;52.116;5.286;2024-02-21T13:25:17;14.70;99.90
13817;DHT22;6979;52.116;5.286;2024-02-21T13:27:49;14.70;99.90
13817;DHT22;6979;52.116;5.286;2024-02-21T13:30:16;14.70;99.90
13817;DHT22;6979;52.116;5.286;2024-02-21T13:32:44;14.80;99.90
13817;DHT22;6979;52.116;5.286;2024-02-21T13:35:12;14.80;99.90
13817;DHT22;6979;52.116;5.286;2024-02-21T13:37:41;14.80;99.90
13817;DHT22;6979;52.116;5.286;2024-02-21T13:40:08;14.70;99.90
13817;DHT22;6979;52.116;5.286;2024-02-21T13:42:35;14.80;99.90
13817;DHT22;6979;52.116;5.286;2024-02-21T13:45:03;14.70;99.90
13817;DHT22;6979;52.116;5.286;2024-02-21T13:47:31;14.70;99.90
13817;DHT22;6979;52.116;5.286;2024-02-21T13:49:58;14.70;99.90
13817;DHT22;6979;52.116;5.286;2024-02-21T13:52:25;14.70;99.90
13817;DHT22;6979;52.116;5.286;2024-02-21T13:54:56;14.70;99.90
13817;DHT22;6979;52.116;5.286;2024-02-21T13:57:24;14.70;99.90
13817;DHT22;6979;52.116;5.286;2024-02-21T13:59:52;14.70;99.90
13817;DHT22;6979;52.116;5.286;2024-02-21T14:02:21;14.70;99.90
13817;DHT22;6979;52.116;5.286;2024-02-21T14:04:48;14.70;99.90
13817;DHT22;6979;52.116;5.286;2024-02-21T14:07:15;14.70;99.90
13817;DHT22;6979;52.116;5.286;2024-02-21T14:09:42;14.70;99.90
13817;DHT22;6979;52.116;5.286;2024-02-21T14:12:11;14.70;99.90
13817;DHT22;6979;52.116;5.286;2024-02-21T14:14:38;14.70;99.90
13817;DHT22;6979;52.116;5.286;2024-02-21T14:17:04;14.70;99.90
13817;DHT22;6979;52.116;5.286;2024-02-21T14:19:31;14.60;99.90
13817;DHT22;6979;52.116;5.286;2024-02-21T14:21:58;14.60;99.90
13817;DHT22;6979;52.116;5.286;2024-02-21T14:24:28;14.60;99.90
13817;DHT22;6979;52.116;5.286;2024-02-21T14:26:55;14.60;99.90
13817;DHT22;6979;52.116;5.286;2024-02-21T14:29:23;14.60;99.90
13817;DHT22;6979;52.116;5.286;2024-02-21T14:31:49;14.70;99.90
13817;DHT22;6979;52.116;5.286;2024-02-21T14:34:16;14.70;99.90
13817;DHT22;6979;52.116;5.286;2024-02-21T14:36:43;14.70;99.90
13817;DHT22;6979;52.116;5.286;2024-02-21T14:39:10;14.70;99.90
13817;DHT22;6979;52.116;5.286;2024-02-21T14:41:37;14.70;99.90
13817;DHT22;6979;52.116;5.286;2024-02-21T14:44:05;14.70;99.90
13817;DHT22;6979;52.116;5.286;2024-02-21T14:46:39;14.60;99.90
13817;DHT22;6979;52.116;5.286;2024-02-21T14:49:06;14.60;99.90
13817;DHT22;6979;52.116;5.286;2024-02-21T14:51:33;14.60;99.90
13817;DHT22;6979;52.116;5.286;2024-02-21T14:54:00;14.50;99.90
13817;DHT22;6979;52.116;5.286;2024-02-21T14:56:26;14.50;99.90
13817;DHT22;6979;52.116;5.286;2024-02-21T14:58:53;14.50;99.90
13817;DHT22;6979;52.116;5.286;2024-02-21T15:01:20;14.50;99.90
13817;DHT22;6979;52.116;5.286;2024-02-21T15:03:49;14.40;99.90
13817;DHT22;6979;52.116;5.286;2024-02-21T15:06:17;14.30;99.90
13817;DHT22;6979;52.116;5.286;2024-02-21T15:08:44;14.30;99.90
13817;DHT22;6979;52.116;5.286;2024-02-21T15:11:13;14.20;99.90
13817;DHT22;6979;52.116;5.286;2024-02-21T15:13:40;14.10;99.90
13817;DHT22;6979;52.116;5.286;2024-02-21T15:16:07;14.10;99.90
13817;DHT22;6979;52.116;5.286;2024-02-21T15:18:34;14.00;99.90
13817;DHT22;6979;52.116;5.286;2024-02-21T15:21:05;13.90;99.90
13817;DHT22;6979;52.116;5.286;2024-02-21T15:23:33;13.80;99.90
13817;DHT22;6979;52.116;5.286;2024-02-21T15:25:59;13.70;99.90
13817;DHT22;6979;52.116;5.286;2024-02-21T15:28:26;13.70;99.90
13817;DHT22;6979;52.116;5.286;2024-02-21T15:30:54;13.70;99.90
13817;DHT22;6979;52.116;5.286;2024-02-21T15:33:21;13.60;99.90
13817;DHT22;6979;52.116;5.286;2024-02-21T15:35:48;13.50;99.90
13817;DHT22;6979;52.116;5.286;2024-02-21T15:38:16;13.50;99.90
13817;DHT22;6979;52.116;5.286;2024-02-21T15:40:43;13.40;99.90
13817;DHT22;6979;52.116;5.286;2024-02-21T15:43:10;13.40;99.90
13817;DHT22;6979;52.116;5.286;2024-02-21T15:45:37;13.30;99.90
13817;DHT22;6979;52.116;5.286;2024-02-21T15:48:06;13.30;99.90